createdAt,value
2022-10-02T00:00:01.318Z,57.01
2022-10-02T00:01:01.342Z,57.01
2022-10-02T00:02:01.356Z,57.11
2022-10-02T00:03:01.382Z,57.11
2022-10-02T00:04:01.499Z,57.11
2022-10-02T00:05:01.402Z,57.11
2022-10-02T00:06:01.414Z,57.11
2022-10-02T00:07:01.430Z,57.11
2022-10-02T00:08:01.461Z,57.11
2022-10-02T00:09:01.499Z,57.11
2022-10-02T00:10:01.502Z,57.14
2022-10-02T00:11:01.495Z,57.14
2022-10-02T00:12:01.526Z,57.11
2022-10-02T00:13:01.527Z,57.24
2022-10-02T00:14:01.580Z,57.14
2022-10-02T00:15:01.572Z,57.24
2022-10-02T00:16:01.653Z,57.24
2022-10-02T00:17:01.591Z,57.11
2022-10-02T00:18:01.630Z,57.14
2022-10-02T00:19:01.651Z,57.11
2022-10-02T00:20:01.629Z,57.14
2022-10-02T00:21:01.682Z,57.24
2022-10-02T00:22:01.687Z,57.24
2022-10-02T00:23:01.714Z,57.14
2022-10-02T00:24:01.704Z,57.14
2022-10-02T00:25:01.713Z,57.14
2022-10-02T00:26:01.746Z,57.14
2022-10-02T00:27:01.741Z,57.14
2022-10-02T00:28:01.897Z,57.14
2022-10-02T00:29:01.798Z,57.14
2022-10-02T00:30:01.859Z,57.14
2022-10-02T00:31:01.826Z,57.14
2022-10-02T00:32:01.981Z,57.14
2022-10-02T00:33:01.869Z,57.14
2022-10-02T00:34:01.851Z,57.24
2022-10-02T00:35:01.836Z,57.14
2022-10-02T00:36:01.836Z,57.14
2022-10-02T00:37:01.858Z,57.14
2022-10-02T00:38:01.889Z,57.14
2022-10-02T00:39:01.892Z,57.24
2022-10-02T00:40:01.889Z,57.24
2022-10-02T00:41:01.921Z,57.24
2022-10-02T00:42:01.919Z,57.24
2022-10-02T00:43:01.945Z,57.24
2022-10-02T00:44:01.971Z,57.24
2022-10-02T00:45:01.950Z,57.24
2022-10-02T00:46:02.054Z,57.24
2022-10-02T00:47:01.960Z,57.24
2022-10-02T00:48:01.963Z,57.14
2022-10-02T00:49:01.964Z,57.14
2022-10-02T00:50:01.965Z,57.14
2022-10-02T00:51:02.000Z,57.14
2022-10-02T00:52:01.974Z,57.14
2022-10-02T00:53:02.012Z,57.14
2022-10-02T00:54:02.029Z,57.24
2022-10-02T00:55:02.044Z,57.24
2022-10-02T00:56:02.058Z,57.14
2022-10-02T00:57:02.038Z,57.14
2022-10-02T00:58:02.093Z,57.24
2022-10-02T00:59:02.058Z,57.14
2022-10-02T01:00:02.060Z,57.14
2022-10-02T01:01:02.265Z,57.24
2022-10-02T01:02:02.161Z,57.24
2022-10-02T01:03:02.067Z,57.24
2022-10-02T01:04:02.037Z,57.24
2022-10-02T01:05:02.056Z,57.24
2022-10-02T01:06:02.065Z,57.24
2022-10-02T01:07:02.055Z,57.24
2022-10-02T01:08:02.053Z,57.34
2022-10-02T01:09:02.078Z,57.24
2022-10-02T01:10:02.115Z,57.24
2022-10-02T01:11:02.127Z,57.14
2022-10-02T01:12:02.192Z,57.24
2022-10-02T01:13:02.156Z,57.14
2022-10-02T01:14:02.177Z,57.14
2022-10-02T01:15:02.194Z,57.14
2022-10-02T01:16:02.261Z,57.14
2022-10-02T01:17:02.209Z,57.24
2022-10-02T01:18:02.305Z,57.24
2022-10-02T01:19:02.261Z,57.14
2022-10-02T01:20:02.274Z,57.14
2022-10-02T01:21:02.302Z,57.14
2022-10-02T01:22:02.332Z,57.14
2022-10-02T01:23:02.322Z,57.14
2022-10-02T01:24:02.356Z,57.14
2022-10-02T01:25:02.369Z,57.14
2022-10-02T01:26:02.387Z,57.14
2022-10-02T01:27:02.399Z,57.14
2022-10-02T01:28:02.459Z,57.14
2022-10-02T01:29:02.402Z,57.04
2022-10-02T01:30:02.405Z,57.04
2022-10-02T01:31:02.425Z,57.04
2022-10-02T01:32:02.470Z,57.04
2022-10-02T01:33:02.435Z,57.04
2022-10-02T01:34:02.490Z,57.04
2022-10-02T01:35:02.487Z,56.93
2022-10-02T01:36:02.520Z,57.04
2022-10-02T01:37:02.536Z,57.04
2022-10-02T01:38:02.563Z,57.04
2022-10-02T01:39:02.525Z,56.93
2022-10-02T01:40:02.541Z,57.14
2022-10-02T01:41:02.583Z,57.04
2022-10-02T01:42:02.581Z,57.04
2022-10-02T01:43:02.607Z,57.04
2022-10-02T01:44:02.628Z,57.04
2022-10-02T01:45:02.645Z,57.04
2022-10-02T01:46:02.778Z,57.04
2022-10-02T01:47:02.640Z,56.93
2022-10-02T01:48:02.680Z,56.93
2022-10-02T01:49:02.693Z,56.93
2022-10-02T01:50:02.749Z,56.93
2022-10-02T01:51:02.710Z,56.93
2022-10-02T01:52:02.743Z,56.93
2022-10-02T01:53:02.785Z,56.93
2022-10-02T01:54:02.801Z,56.93
2022-10-02T01:55:02.842Z,57.04
2022-10-02T01:56:02.809Z,57.04
2022-10-02T01:57:02.833Z,56.93
2022-10-02T01:58:02.861Z,57.04
2022-10-02T01:59:02.883Z,57.04
2022-10-02T02:00:02.899Z,57.04
2022-10-02T02:01:02.960Z,57.04
2022-10-02T02:02:03.012Z,57.04
2022-10-02T02:03:02.920Z,56.93
2022-10-02T02:04:02.931Z,57.04
2022-10-02T02:05:02.965Z,56.93
2022-10-02T02:06:02.975Z,56.93
2022-10-02T02:07:02.973Z,56.93
2022-10-02T02:08:02.980Z,56.93
2022-10-02T02:09:02.989Z,57.04
2022-10-02T02:10:03.009Z,57.04
2022-10-02T02:11:03.021Z,56.93
2022-10-02T02:12:03.043Z,56.93
2022-10-02T02:13:03.036Z,56.93
2022-10-02T02:14:03.034Z,56.93
2022-10-02T02:15:03.071Z,56.93
2022-10-02T02:16:03.117Z,57.04
2022-10-02T02:17:03.063Z,57.04
2022-10-02T02:18:03.087Z,57.04
2022-10-02T02:19:03.098Z,57.04
2022-10-02T02:20:03.118Z,56.93
2022-10-02T02:21:03.154Z,56.93
2022-10-02T02:22:03.218Z,57.04
2022-10-02T02:23:03.190Z,57.04
2022-10-02T02:24:03.224Z,57.04
2022-10-02T02:25:03.243Z,57.04
2022-10-02T02:26:03.218Z,57.04
2022-10-02T02:27:03.226Z,56.93
2022-10-02T02:28:03.390Z,57.14
2022-10-02T02:29:03.240Z,57.04
2022-10-02T02:30:03.280Z,57.04
2022-10-02T02:31:03.284Z,56.93
2022-10-02T02:32:03.408Z,57.04
2022-10-02T02:33:03.313Z,56.93
2022-10-02T02:34:03.313Z,56.93
2022-10-02T02:35:03.351Z,57.04
2022-10-02T02:36:03.372Z,56.93
2022-10-02T02:37:03.405Z,56.93
2022-10-02T02:38:03.508Z,57.04
2022-10-02T02:39:03.416Z,56.93
2022-10-02T02:40:03.420Z,56.93
2022-10-02T02:41:03.441Z,56.93
2022-10-02T02:42:03.459Z,56.84
2022-10-02T02:43:03.450Z,56.84
2022-10-02T02:44:03.464Z,56.84
2022-10-02T02:45:03.493Z,56.84
2022-10-02T02:46:03.637Z,56.93
2022-10-02T02:47:03.508Z,56.93
2022-10-02T02:48:03.513Z,56.93
2022-10-02T02:49:03.541Z,56.93
2022-10-02T02:50:03.561Z,56.93
2022-10-02T02:51:03.585Z,56.93
2022-10-02T02:52:03.629Z,56.93
2022-10-02T02:53:03.641Z,56.93
2022-10-02T02:54:03.665Z,56.93
2022-10-02T02:55:03.658Z,56.84
2022-10-02T02:56:03.688Z,56.93
2022-10-02T02:57:03.716Z,56.84
2022-10-02T02:58:03.742Z,56.93
2022-10-02T02:59:03.737Z,56.93
2022-10-02T03:00:03.780Z,56.93
2022-10-02T03:01:03.863Z,56.93
2022-10-02T03:02:03.889Z,56.93
2022-10-02T03:03:03.854Z,56.93
2022-10-02T03:04:03.878Z,56.93
2022-10-02T03:05:03.897Z,57.04
2022-10-02T03:06:03.948Z,56.93
2022-10-02T03:07:03.924Z,56.93
2022-10-02T03:08:03.947Z,56.93
2022-10-02T03:09:03.972Z,56.93
2022-10-02T03:10:03.990Z,56.93
2022-10-02T03:11:03.998Z,56.93
2022-10-02T03:12:04.001Z,56.93
2022-10-02T03:13:04.003Z,56.93
2022-10-02T03:14:04.082Z,56.93
2022-10-02T03:15:04.064Z,56.93
2022-10-02T03:16:04.129Z,56.93
2022-10-02T03:17:04.104Z,56.93
2022-10-02T03:18:04.124Z,56.93
2022-10-02T03:19:04.143Z,56.93
2022-10-02T03:20:04.142Z,56.93
2022-10-02T03:21:04.180Z,56.93
2022-10-02T03:22:04.177Z,56.93
2022-10-02T03:23:04.204Z,57.04
2022-10-02T03:24:04.223Z,56.93
2022-10-02T03:25:04.248Z,56.93
2022-10-02T03:26:04.280Z,56.93
2022-10-02T03:27:04.283Z,56.93
2022-10-02T03:28:04.350Z,56.93
2022-10-02T03:29:04.357Z,56.93
2022-10-02T03:30:04.273Z,56.93
2022-10-02T03:31:04.323Z,56.93
2022-10-02T03:32:04.291Z,56.93
2022-10-02T03:33:04.310Z,56.93
2022-10-02T03:34:04.335Z,56.93
2022-10-02T03:35:04.353Z,56.93
2022-10-02T03:36:04.367Z,56.93
2022-10-02T03:37:04.377Z,56.93
2022-10-02T03:38:04.416Z,56.93
2022-10-02T03:40:04.452Z,56.93
2022-10-02T03:41:04.483Z,56.93
2022-10-02T03:42:04.533Z,56.93
2022-10-02T03:43:04.541Z,57.04
2022-10-02T03:44:04.555Z,56.93
2022-10-02T03:45:04.580Z,56.93
2022-10-02T03:46:04.689Z,56.93
2022-10-02T03:47:04.643Z,56.84
2022-10-02T03:48:04.670Z,56.93
2022-10-02T03:49:04.680Z,56.93
2022-10-02T03:50:04.681Z,56.93
2022-10-02T03:51:04.712Z,56.93
2022-10-02T03:52:04.740Z,56.93
2022-10-02T03:53:04.730Z,56.93
2022-10-02T03:54:04.762Z,56.84
2022-10-02T03:55:04.768Z,56.93
2022-10-02T03:56:04.790Z,56.93
2022-10-02T03:57:04.791Z,56.93
2022-10-02T03:58:04.845Z,56.84
2022-10-02T03:59:04.793Z,56.84
2022-10-02T04:00:04.802Z,56.84
2022-10-02T04:01:04.852Z,56.84
2022-10-02T04:02:04.898Z,56.84
2022-10-02T04:03:04.854Z,56.84
2022-10-02T04:04:04.879Z,56.93
2022-10-02T04:05:04.906Z,56.84
2022-10-02T04:06:04.935Z,56.84
2022-10-02T04:07:04.987Z,56.84
2022-10-02T04:08:04.941Z,56.84
2022-10-02T04:09:04.971Z,56.84
2022-10-02T04:10:04.978Z,56.93
2022-10-02T04:11:04.991Z,56.84
2022-10-02T04:12:04.991Z,56.84
2022-10-02T04:13:05.002Z,56.93
2022-10-02T04:14:05.065Z,56.84
2022-10-02T04:15:05.027Z,56.84
2022-10-02T04:16:05.090Z,56.84
2022-10-02T04:17:05.089Z,56.84
2022-10-02T04:18:05.082Z,56.93
2022-10-02T04:19:05.098Z,56.93
2022-10-02T04:20:05.130Z,56.93
2022-10-02T04:21:05.152Z,56.93
2022-10-02T04:22:05.175Z,56.93
2022-10-02T04:23:05.173Z,56.93
2022-10-02T04:24:05.318Z,56.93
2022-10-02T04:25:05.194Z,56.84
2022-10-02T04:26:05.202Z,56.93
2022-10-02T04:27:05.215Z,56.93
2022-10-02T04:28:05.337Z,56.84
2022-10-02T04:29:05.256Z,56.93
2022-10-02T04:30:05.291Z,56.93
2022-10-02T04:31:05.283Z,57.04
2022-10-02T04:32:05.328Z,57.04
2022-10-02T04:33:05.303Z,56.93
2022-10-02T04:34:05.322Z,57.14
2022-10-02T04:35:05.340Z,56.93
2022-10-02T04:36:05.368Z,56.93
2022-10-02T04:37:05.394Z,56.93
2022-10-02T04:38:05.437Z,56.84
2022-10-02T04:39:05.445Z,56.93
2022-10-02T04:40:05.473Z,56.93
2022-10-02T04:41:05.500Z,56.93
2022-10-02T04:42:05.530Z,56.93
2022-10-02T04:43:05.554Z,56.93
2022-10-02T04:44:05.560Z,57.04
2022-10-02T04:45:05.572Z,56.93
2022-10-02T04:46:05.670Z,56.93
2022-10-02T04:47:05.614Z,57.04
2022-10-02T04:48:05.592Z,57.04
2022-10-02T04:49:05.616Z,56.93
2022-10-02T04:50:05.627Z,56.93
2022-10-02T04:51:05.822Z,56.93
2022-10-02T04:52:05.654Z,56.93
2022-10-02T04:53:05.637Z,56.93
2022-10-02T04:54:05.649Z,56.93
2022-10-02T04:55:05.659Z,56.93
2022-10-02T04:56:05.685Z,56.93
2022-10-02T04:57:05.698Z,56.93
2022-10-02T04:58:05.713Z,56.93
2022-10-02T04:59:05.747Z,57.04
2022-10-02T05:00:05.770Z,56.93
2022-10-02T05:01:05.952Z,56.93
2022-10-02T05:02:05.921Z,56.93
2022-10-02T05:03:05.802Z,56.93
2022-10-02T05:04:05.832Z,56.84
2022-10-02T05:05:05.815Z,56.84
2022-10-02T05:06:05.829Z,56.84
2022-10-02T05:07:05.846Z,56.93
2022-10-02T05:08:05.869Z,57.04
2022-10-02T05:09:05.898Z,56.93
2022-10-02T05:10:05.905Z,56.93
2022-10-02T05:11:05.903Z,56.93
2022-10-02T05:12:05.931Z,57.04
2022-10-02T05:13:05.948Z,57.04
2022-10-02T05:14:05.936Z,57.04
2022-10-02T05:15:05.956Z,57.04
2022-10-02T05:16:06.039Z,57.04
2022-10-02T05:17:05.982Z,57.04
2022-10-02T05:18:05.979Z,57.04
2022-10-02T05:19:05.981Z,57.04
2022-10-02T05:20:05.995Z,57.04
2022-10-02T05:21:06.015Z,56.93
2022-10-02T05:22:06.075Z,56.93
2022-10-02T05:23:06.056Z,57.04
2022-10-02T05:24:06.071Z,56.93
2022-10-02T05:25:06.085Z,57.04
2022-10-02T05:26:07.768Z,56.93
2022-10-02T05:27:06.149Z,56.93
2022-10-02T05:28:06.268Z,56.93
2022-10-02T05:29:06.139Z,56.84
2022-10-02T05:30:06.158Z,56.84
2022-10-02T05:31:06.209Z,56.93
2022-10-02T05:32:06.174Z,56.93
2022-10-02T05:33:06.202Z,56.93
2022-10-02T05:34:06.241Z,56.93
2022-10-02T05:35:06.224Z,56.93
2022-10-02T05:36:06.242Z,57.04
2022-10-02T05:37:06.268Z,56.93
2022-10-02T05:38:06.235Z,56.93
2022-10-02T05:39:06.269Z,56.93
2022-10-02T05:40:06.293Z,56.84
2022-10-02T05:41:06.291Z,56.93
2022-10-02T05:42:06.323Z,56.93
2022-10-02T05:43:06.322Z,56.93
2022-10-02T05:44:06.360Z,56.84
2022-10-02T05:45:06.325Z,56.84
2022-10-02T05:46:06.352Z,56.84
2022-10-02T05:47:06.434Z,56.84
2022-10-02T05:48:06.393Z,56.84
2022-10-02T05:49:06.408Z,56.84
2022-10-02T05:50:06.460Z,56.93
2022-10-02T05:51:06.469Z,56.84
2022-10-02T05:52:06.537Z,56.84
2022-10-02T05:53:06.488Z,56.84
2022-10-02T05:54:06.521Z,56.84
2022-10-02T05:55:06.569Z,56.84
2022-10-02T05:56:06.531Z,56.74
2022-10-02T05:57:06.581Z,56.84
2022-10-02T05:58:06.552Z,56.84
2022-10-02T05:59:06.613Z,56.84
2022-10-02T06:00:06.586Z,56.84
2022-10-02T06:01:06.664Z,56.84
2022-10-02T06:02:06.663Z,56.84
2022-10-02T06:03:06.584Z,56.84
2022-10-02T06:04:06.603Z,56.84
2022-10-02T06:05:06.624Z,56.84
2022-10-02T06:06:06.646Z,56.84
2022-10-02T06:07:06.871Z,56.84
2022-10-02T06:08:06.645Z,56.74
2022-10-02T06:09:06.647Z,56.74
2022-10-02T06:10:06.659Z,56.84
2022-10-02T06:11:06.657Z,56.84
2022-10-02T06:12:06.674Z,56.84
2022-10-02T06:13:06.661Z,56.84
2022-10-02T06:14:06.689Z,56.84
2022-10-02T06:15:06.703Z,56.84
2022-10-02T06:16:06.825Z,56.84
2022-10-02T06:17:06.758Z,56.74
2022-10-02T06:18:06.769Z,56.74
2022-10-02T06:19:06.783Z,56.74
2022-10-02T06:20:06.795Z,56.74
2022-10-02T06:21:06.833Z,56.74
2022-10-02T06:22:06.882Z,56.81
2022-10-02T06:23:06.882Z,56.71
2022-10-02T06:24:06.907Z,56.71
2022-10-02T06:25:06.916Z,56.71
2022-10-02T06:26:06.965Z,56.71
2022-10-02T06:27:06.974Z,56.71
2022-10-02T06:28:07.025Z,56.71
2022-10-02T06:29:07.008Z,56.81
2022-10-02T06:30:07.019Z,56.71
2022-10-02T06:31:07.091Z,56.71
2022-10-02T06:32:07.034Z,56.71
2022-10-02T06:33:07.058Z,56.81
2022-10-02T06:34:07.051Z,56.71
2022-10-02T06:35:07.082Z,56.71
2022-10-02T06:36:07.085Z,56.71
2022-10-02T06:37:07.099Z,56.71
2022-10-02T06:38:07.126Z,56.61
2022-10-02T06:39:07.122Z,56.71
2022-10-02T06:40:07.172Z,56.71
2022-10-02T06:41:07.181Z,56.71
2022-10-02T06:42:07.157Z,56.71
2022-10-02T06:43:07.211Z,56.71
2022-10-02T06:44:07.218Z,56.61
2022-10-02T06:45:07.213Z,56.61
2022-10-02T06:46:07.379Z,56.61
2022-10-02T06:47:07.266Z,56.61
2022-10-02T06:48:07.270Z,56.61
2022-10-02T06:49:07.288Z,56.61
2022-10-02T06:50:07.306Z,56.61
2022-10-02T06:51:07.379Z,56.61
2022-10-02T06:52:07.355Z,56.51
2022-10-02T06:53:07.369Z,56.51
2022-10-02T06:54:07.441Z,56.61
2022-10-02T06:55:07.413Z,56.51
2022-10-02T06:56:07.396Z,56.51
2022-10-02T06:57:07.423Z,56.51
2022-10-02T06:58:07.439Z,56.51
2022-10-02T06:59:07.459Z,56.51
2022-10-02T07:00:07.494Z,56.51
2022-10-02T07:01:07.595Z,56.61
2022-10-02T07:02:07.615Z,56.51
2022-10-02T07:03:07.550Z,56.51
2022-10-02T07:04:07.604Z,56.61
2022-10-02T07:05:07.577Z,56.61
2022-10-02T07:06:07.617Z,56.61
2022-10-02T07:07:07.609Z,56.51
2022-10-02T07:08:07.632Z,56.61
2022-10-02T07:09:07.668Z,56.61
2022-10-02T07:10:07.687Z,56.51
2022-10-02T07:11:07.645Z,56.51
2022-10-02T07:12:07.670Z,56.61
2022-10-02T07:13:07.682Z,56.61
2022-10-02T07:14:07.716Z,56.51
2022-10-02T07:15:07.714Z,56.51
2022-10-02T07:16:07.791Z,56.51
2022-10-02T07:17:07.755Z,56.41
2022-10-02T07:18:07.745Z,56.41
2022-10-02T07:19:07.797Z,56.51
2022-10-02T07:20:07.767Z,56.51
2022-10-02T07:21:07.793Z,56.41
2022-10-02T07:22:25.915Z,56.41
2022-10-02T07:23:07.950Z,56.61
2022-10-02T07:24:07.860Z,56.41
2022-10-02T07:25:07.885Z,56.51
2022-10-02T07:27:33.836Z,56.51
2022-10-02T07:28:34.029Z,56.41
2022-10-02T07:29:33.867Z,56.51
2022-10-02T07:30:33.864Z,56.41
2022-10-02T07:31:34.009Z,56.41
2022-10-02T07:32:33.867Z,56.41
2022-10-02T07:33:33.888Z,56.51
2022-10-02T07:34:33.888Z,56.51
2022-10-02T07:35:33.891Z,56.61
2022-10-02T07:36:34.329Z,56.51
2022-10-02T07:37:33.901Z,56.51
2022-10-02T07:38:33.914Z,56.41
2022-10-02T07:39:33.930Z,56.51
2022-10-02T07:40:33.965Z,56.51
2022-10-02T07:41:33.934Z,56.41
2022-10-02T07:42:33.928Z,56.41
2022-10-02T07:43:33.958Z,56.51
2022-10-02T07:44:33.959Z,56.41
2022-10-02T07:45:34.061Z,56.30
2022-10-02T07:46:34.365Z,56.28
2022-10-02T07:47:33.969Z,56.38
2022-10-02T07:48:33.979Z,56.41
2022-10-02T07:49:33.986Z,56.61
2022-10-02T07:50:34.003Z,56.38
2022-10-02T07:51:33.998Z,56.28
2022-10-02T07:52:34.021Z,56.38
2022-10-02T07:53:34.046Z,56.38
2022-10-02T07:54:34.069Z,56.28
2022-10-02T07:55:34.054Z,56.18
2022-10-02T07:56:34.315Z,56.28
2022-10-02T07:57:34.104Z,56.28
2022-10-02T07:58:34.123Z,56.48
2022-10-02T07:59:34.177Z,56.38
2022-10-02T08:00:34.176Z,56.58
2022-10-02T08:01:34.185Z,56.28
2022-10-02T08:02:34.248Z,56.18
2022-10-02T08:03:34.220Z,56.28
2022-10-02T08:04:37.136Z,56.18
2022-10-02T08:05:34.248Z,56.18
2022-10-02T08:06:34.717Z,56.18
2022-10-02T08:07:34.262Z,56.18
2022-10-02T08:08:34.309Z,56.18
2022-10-02T08:09:34.255Z,56.28
2022-10-02T08:10:34.277Z,56.18
2022-10-02T08:11:34.281Z,56.18
2022-10-02T08:12:34.283Z,56.18
2022-10-02T08:13:34.297Z,56.28
2022-10-02T08:14:34.312Z,56.38
2022-10-02T08:15:34.366Z,56.28
2022-10-02T08:16:34.919Z,56.18
2022-10-02T08:17:34.320Z,56.38
2022-10-02T08:18:35.601Z,56.28
2022-10-02T08:19:34.332Z,56.28
2022-10-02T08:20:34.376Z,56.28
2022-10-02T08:21:34.382Z,56.28
2022-10-02T08:22:34.385Z,56.28
2022-10-02T08:23:34.413Z,56.28
2022-10-02T08:24:34.413Z,56.28
2022-10-02T08:25:34.430Z,56.28
2022-10-02T08:26:35.858Z,56.28
2022-10-02T08:27:34.439Z,56.18
2022-10-02T08:28:34.468Z,56.28
2022-10-02T08:29:34.461Z,56.38
2022-10-02T08:30:34.485Z,56.28
2022-10-02T08:31:34.531Z,56.28
2022-10-02T08:32:35.047Z,56.28
2022-10-02T08:33:34.486Z,56.38
2022-10-02T08:34:34.500Z,56.38
2022-10-02T08:35:34.519Z,56.38
2022-10-02T08:36:34.925Z,56.28
2022-10-02T08:37:34.555Z,56.28
2022-10-02T08:38:34.560Z,56.38
2022-10-02T08:39:34.577Z,56.38
2022-10-02T08:40:34.557Z,56.38
2022-10-02T08:41:34.563Z,56.38
2022-10-02T08:42:34.579Z,56.38
2022-10-02T08:43:34.618Z,56.38
2022-10-02T08:44:36.434Z,56.28
2022-10-02T08:45:34.694Z,56.28
2022-10-02T08:46:35.072Z,56.38
2022-10-02T08:47:34.644Z,56.28
2022-10-02T08:48:34.662Z,56.38
2022-10-02T08:49:34.621Z,56.38
2022-10-02T08:50:34.653Z,56.38
2022-10-02T08:51:34.670Z,56.38
2022-10-02T08:52:34.694Z,56.38
2022-10-02T08:53:34.709Z,56.38
2022-10-02T08:54:34.708Z,56.38
2022-10-02T08:55:34.742Z,56.38
2022-10-02T08:56:35.147Z,56.28
2022-10-02T08:57:34.741Z,56.28
2022-10-02T08:58:34.762Z,56.28
2022-10-02T08:59:34.783Z,56.28
2022-10-02T09:00:34.898Z,56.38
2022-10-02T09:01:34.847Z,56.38
2022-10-02T09:02:34.896Z,56.38
2022-10-02T09:03:34.916Z,56.38
2022-10-02T09:04:34.872Z,56.38
2022-10-02T09:05:34.898Z,56.38
2022-10-02T09:06:35.208Z,56.48
2022-10-02T09:07:34.912Z,56.38
2022-10-02T09:08:34.889Z,56.48
2022-10-02T09:09:34.921Z,56.48
2022-10-02T09:10:34.944Z,56.48
2022-10-02T09:11:34.939Z,56.48
2022-10-02T09:12:34.980Z,56.38
2022-10-02T09:13:34.963Z,56.48
2022-10-02T09:14:34.974Z,56.48
2022-10-02T09:15:34.971Z,56.48
2022-10-02T09:16:35.473Z,56.48
2022-10-02T09:17:35.010Z,56.38
2022-10-02T09:18:35.036Z,56.28
2022-10-02T09:19:35.048Z,56.28
2022-10-02T09:20:35.050Z,56.28
2022-10-02T09:21:35.055Z,56.28
2022-10-02T09:22:35.084Z,56.18
2022-10-02T09:23:35.116Z,56.38
2022-10-02T09:24:35.132Z,56.28
2022-10-02T09:25:35.149Z,56.28
2022-10-02T09:26:35.498Z,56.28
2022-10-02T09:27:35.133Z,56.18
2022-10-02T09:28:35.209Z,56.18
2022-10-02T09:29:35.175Z,56.18
2022-10-02T09:30:35.186Z,56.18
2022-10-02T09:31:35.262Z,56.08
2022-10-02T09:32:35.196Z,55.98
2022-10-02T09:33:35.218Z,56.05
2022-10-02T09:34:35.176Z,55.95
2022-10-02T09:35:35.225Z,56.05
2022-10-02T09:36:35.542Z,55.95
2022-10-02T09:37:35.177Z,55.95
2022-10-02T09:38:38.990Z,55.95
2022-10-02T09:39:35.214Z,55.85
2022-10-02T09:40:35.261Z,55.85
2022-10-02T09:41:35.264Z,55.85
2022-10-02T09:42:35.286Z,55.85
2022-10-02T09:43:35.290Z,55.85
2022-10-02T09:44:35.309Z,55.85
2022-10-02T09:45:35.423Z,55.85
2022-10-02T09:46:35.705Z,55.85
2022-10-02T09:47:35.362Z,55.95
2022-10-02T09:48:35.366Z,55.95
2022-10-02T09:49:35.350Z,55.95
2022-10-02T09:50:35.384Z,56.15
2022-10-02T09:51:35.424Z,55.95
2022-10-02T09:52:39.209Z,55.95
2022-10-02T09:53:35.454Z,55.95
2022-10-02T09:54:35.435Z,55.95
2022-10-02T09:55:35.475Z,55.85
2022-10-02T09:56:35.778Z,55.85
2022-10-02T09:57:35.521Z,55.95
2022-10-02T09:58:35.519Z,55.85
2022-10-02T09:59:35.523Z,55.95
2022-10-02T10:00:35.548Z,55.95
2022-10-02T10:01:35.562Z,55.95
2022-10-02T10:02:35.632Z,56.05
2022-10-02T10:03:35.603Z,56.05
2022-10-02T10:05:00.931Z,55.95
2022-10-02T10:05:35.624Z,56.05
2022-10-02T10:06:35.872Z,56.05
2022-10-02T10:07:35.706Z,55.95
2022-10-02T10:08:35.677Z,55.95
2022-10-02T10:09:35.663Z,56.05
2022-10-02T10:10:35.685Z,55.95
2022-10-02T10:11:35.997Z,55.95
2022-10-02T10:12:35.686Z,56.05
2022-10-02T10:13:35.724Z,56.05
2022-10-02T10:14:35.727Z,56.05
2022-10-02T10:15:35.744Z,56.05
2022-10-02T10:16:35.830Z,56.15
2022-10-02T10:17:35.781Z,56.05
2022-10-02T10:18:35.800Z,55.95
2022-10-02T10:19:35.829Z,56.05
2022-10-02T10:20:35.852Z,56.05
2022-10-02T10:21:36.083Z,55.95
2022-10-02T10:22:35.876Z,55.95
2022-10-02T10:23:35.910Z,55.95
2022-10-02T10:24:35.902Z,56.05
2022-10-02T10:25:35.942Z,55.95
2022-10-02T10:26:35.916Z,56.05
2022-10-02T10:27:35.912Z,56.05
2022-10-02T10:28:35.931Z,56.05
2022-10-02T10:29:35.946Z,55.95
2022-10-02T10:30:35.948Z,55.95
2022-10-02T10:31:36.373Z,56.05
2022-10-02T10:32:35.975Z,56.05
2022-10-02T10:33:35.991Z,55.95
2022-10-02T10:34:36.009Z,55.95
2022-10-02T10:35:36.027Z,55.95
2022-10-02T10:36:36.061Z,55.85
2022-10-02T10:37:36.078Z,55.95
2022-10-02T10:38:36.108Z,55.85
2022-10-02T10:39:36.159Z,55.95
2022-10-02T10:40:36.172Z,55.95
2022-10-02T10:41:36.537Z,55.85
2022-10-02T10:42:56.189Z,55.95
2022-10-02T10:43:36.193Z,56.05
2022-10-02T10:44:36.220Z,55.95
2022-10-02T10:45:36.268Z,55.95
2022-10-02T10:46:36.198Z,55.95
2022-10-02T10:47:36.234Z,55.85
2022-10-02T10:48:36.240Z,55.85
2022-10-02T10:49:36.260Z,55.95
2022-10-02T10:50:36.249Z,55.85
2022-10-02T10:51:36.632Z,56.05
2022-10-02T10:52:36.288Z,56.15
2022-10-02T10:53:36.262Z,55.95
2022-10-02T10:54:36.290Z,55.95
2022-10-02T10:55:36.330Z,55.95
2022-10-02T10:56:36.336Z,56.05
2022-10-02T10:57:36.378Z,55.95
2022-10-02T10:58:36.351Z,56.05
2022-10-02T10:59:36.361Z,56.05
2022-10-02T11:00:36.375Z,55.95
2022-10-02T11:01:36.798Z,55.95
2022-10-02T11:02:36.467Z,55.85
2022-10-02T11:03:36.421Z,55.95
2022-10-02T11:04:36.450Z,55.95
2022-10-02T11:05:36.460Z,55.95
2022-10-02T11:06:36.481Z,55.95
2022-10-02T11:07:36.475Z,55.95
2022-10-02T11:08:36.457Z,55.95
2022-10-02T11:09:36.453Z,55.95
2022-10-02T11:10:36.483Z,55.95
2022-10-02T11:11:36.832Z,56.05
2022-10-02T11:12:36.511Z,56.05
2022-10-02T11:13:36.493Z,55.95
2022-10-02T11:14:36.526Z,56.05
2022-10-02T11:15:36.544Z,55.95
2022-10-02T11:16:36.641Z,56.05
2022-10-02T11:17:36.587Z,55.95
2022-10-02T11:18:36.589Z,55.95
2022-10-02T11:19:36.625Z,55.95
2022-10-02T11:20:36.662Z,56.05
2022-10-02T11:21:37.383Z,56.15
2022-10-02T11:22:36.629Z,56.05
2022-10-02T11:23:36.647Z,56.15
2022-10-02T11:24:36.663Z,56.05
2022-10-02T11:25:36.668Z,56.05
2022-10-02T11:26:36.688Z,55.95
2022-10-02T11:27:36.722Z,55.95
2022-10-02T11:28:36.822Z,55.85
2022-10-02T11:29:36.777Z,55.95
2022-10-02T11:30:41.482Z,55.85
2022-10-02T11:31:37.040Z,55.85
2022-10-02T11:32:36.756Z,55.85
2022-10-02T11:33:36.767Z,55.85
2022-10-02T11:34:36.795Z,55.85
2022-10-02T11:35:36.817Z,55.85
2022-10-02T11:36:36.827Z,55.95
2022-10-02T11:37:36.811Z,55.95
2022-10-02T11:38:36.833Z,56.05
2022-10-02T11:39:36.848Z,56.05
2022-10-02T11:40:36.874Z,55.95
2022-10-02T11:41:37.221Z,55.95
2022-10-02T11:42:36.902Z,55.85
2022-10-02T11:43:41.765Z,55.85
2022-10-02T11:44:36.947Z,55.95
2022-10-02T11:45:37.103Z,55.85
2022-10-02T11:46:36.962Z,56.15
2022-10-02T11:47:36.983Z,55.95
2022-10-02T11:48:37.015Z,55.85
2022-10-02T11:49:37.033Z,55.85
2022-10-02T11:50:37.034Z,55.95
2022-10-02T11:51:37.207Z,55.95
2022-10-02T11:52:37.035Z,55.95
2022-10-02T11:53:37.060Z,55.93
2022-10-02T11:54:37.073Z,55.93
2022-10-02T11:55:37.100Z,55.82
2022-10-02T11:56:37.068Z,55.73
2022-10-02T11:57:37.067Z,55.82
2022-10-02T11:58:37.078Z,55.82
2022-10-02T11:59:37.114Z,55.93
2022-10-02T12:00:37.123Z,55.93
2022-10-02T12:01:37.421Z,55.82
2022-10-02T12:02:37.206Z,56.02
2022-10-02T12:03:37.150Z,56.02
2022-10-02T12:04:37.109Z,55.82
2022-10-02T12:05:37.121Z,55.82
2022-10-02T12:06:37.157Z,55.93
2022-10-02T12:07:37.171Z,56.23
2022-10-02T12:08:37.170Z,56.02
2022-10-02T12:09:37.192Z,55.93
2022-10-02T12:10:37.181Z,56.02
2022-10-02T12:11:37.448Z,56.23
2022-10-02T12:12:37.197Z,56.02
2022-10-02T12:13:37.214Z,55.93
2022-10-02T12:14:37.237Z,55.93
2022-10-02T12:15:37.288Z,55.93
2022-10-02T12:16:37.312Z,55.82
2022-10-02T12:17:37.234Z,55.93
2022-10-02T12:18:37.266Z,55.82
2022-10-02T12:19:37.283Z,56.02
2022-10-02T12:20:37.302Z,56.23
2022-10-02T12:21:37.551Z,56.13
2022-10-02T12:22:37.320Z,56.13
2022-10-02T12:23:37.320Z,55.93
2022-10-02T12:24:37.370Z,56.52
2022-10-02T12:25:37.341Z,56.23
2022-10-02T12:26:37.364Z,56.23
2022-10-02T12:27:37.393Z,55.93
2022-10-02T12:28:37.492Z,56.13
2022-10-02T12:29:37.655Z,55.93
2022-10-02T12:30:37.442Z,56.02
2022-10-02T12:31:37.890Z,55.93
2022-10-02T12:32:37.539Z,56.02
2022-10-02T12:33:37.478Z,56.02
2022-10-02T12:34:37.492Z,55.93
2022-10-02T12:35:37.469Z,55.93
2022-10-02T12:36:37.479Z,55.93
2022-10-02T12:37:37.497Z,55.82
2022-10-02T12:38:37.519Z,55.82
2022-10-02T12:39:37.546Z,55.82
2022-10-02T12:40:37.523Z,55.82
2022-10-02T12:41:37.744Z,56.13
2022-10-02T12:42:37.549Z,55.93
2022-10-02T12:43:37.581Z,55.82
2022-10-02T12:44:37.590Z,55.93
2022-10-02T12:45:37.651Z,56.13
2022-10-02T12:46:37.622Z,55.93
2022-10-02T12:47:37.671Z,55.82
2022-10-02T12:48:37.664Z,55.82
2022-10-02T12:49:37.698Z,55.93
2022-10-02T12:50:37.706Z,56.02
2022-10-02T12:51:37.930Z,56.23
2022-10-02T12:52:37.714Z,56.23
2022-10-02T12:53:37.738Z,55.82
2022-10-02T12:54:37.771Z,55.73